VOZ688 YPPH-YMML
Flight info
| Callsign | VOZ688 |
|---|---|
| Flight time | N/A |
| Altitude | 37000 |
| Route | PH H18 BURGU Y53 ALAXO V279 ML |
| Aircraft | B736/M-SDE2E3FGHIRWXY/LB1 |
Departure
| Time | 2026-05-04 06:28 |
|---|---|
| Airport | Perth International Airport (YPPH) |
Arrival
| Time | N/A |
|---|---|
| Airport | Melbourne Airport (YMML) |
| Time | Latitude | Longitude | Altitude | Speed | Heading |
|---|---|---|---|---|---|
| 2026-05-04 06:08 | -31.94162 | 115.97056 | 67 ft | 0 kts | 14° |
| 2026-05-04 06:17 | -31.94168 | 115.97054 | 67 ft | 3 kts | 13° |
| 2026-05-04 06:18 | -31.94190 | 115.97049 | 60 ft | 3 kts | 8° |
| 2026-05-04 06:18 | -31.94212 | 115.97046 | 64 ft | 3 kts | 6° |
| 2026-05-04 06:18 | -31.94234 | 115.97043 | 62 ft | 3 kts | 11° |
| 2026-05-04 06:20 | -31.94296 | 115.97025 | 59 ft | 0 kts | 15° |
| 2026-05-04 06:21 | -31.94295 | 115.97025 | 62 ft | 1 kts | 15° |
| 2026-05-04 06:21 | -31.94281 | 115.97029 | 62 ft | 4 kts | 15° |
| 2026-05-04 06:22 | -31.94246 | 115.97034 | 63 ft | 6 kts | 352° |
| 2026-05-04 06:22 | -31.94218 | 115.96989 | 58 ft | 8 kts | 288° |
| 2026-05-04 06:25 | -31.94407 | 115.96189 | 67 ft | 16 kts | 284° |
| 2026-05-04 06:25 | -31.94330 | 115.96101 | 65 ft | 16 kts | 328° |
| 2026-05-04 06:26 | -31.94241 | 115.96037 | 62 ft | 15 kts | 329° |
| 2026-05-04 06:26 | -31.94203 | 115.96011 | 60 ft | 0 kts | 329° |
| 2026-05-04 06:26 | -31.94200 | 115.96009 | 61 ft | 3 kts | 329° |
| 2026-05-04 06:27 | -31.93519 | 115.97042 | 65 ft | 139 kts | 58° |
| 2026-05-04 06:28 | -31.92957 | 115.98138 | 376 ft | 166 kts | 59° |
| 2026-05-04 06:28 | -31.92313 | 115.99380 | 918 ft | 182 kts | 59° |
| 2026-05-04 06:28 | -31.91697 | 116.00594 | 2067 ft | 164 kts | 61° |
| 2026-05-04 06:28 | -31.91095 | 116.01785 | 2750 ft | 180 kts | 61° |
| 2026-05-04 06:29 | -31.90393 | 116.03172 | 3038 ft | 214 kts | 61° |
| 2026-05-04 06:29 | -31.89586 | 116.04759 | 3322 ft | 244 kts | 60° |
| 2026-05-04 06:29 | -31.88683 | 116.06524 | 3973 ft | 255 kts | 60° |
| 2026-05-04 06:29 | -31.87748 | 116.08348 | 4746 ft | 263 kts | 61° |
| 2026-05-04 06:30 | -31.86795 | 116.10202 | 5686 ft | 264 kts | 61° |
| 2026-05-04 06:30 | -31.85852 | 116.12047 | 6628 ft | 265 kts | 62° |
| 2026-05-04 06:30 | -31.85223 | 116.14066 | 7412 ft | 268 kts | 77° |
| 2026-05-04 06:30 | -31.84804 | 116.16222 | 8217 ft | 273 kts | 79° |
| 2026-05-04 06:31 | -31.84402 | 116.18405 | 9049 ft | 276 kts | 79° |
| 2026-05-04 06:31 | -31.83990 | 116.20639 | 9856 ft | 281 kts | 79° |
| 2026-05-04 06:31 | -31.83570 | 116.22890 | 10498 ft | 292 kts | 79° |
| 2026-05-04 06:31 | -31.83108 | 116.25342 | 10672 ft | 318 kts | 79° |
| 2026-05-04 06:32 | -31.82606 | 116.27972 | 10854 ft | 341 kts | 79° |
| 2026-05-04 06:33 | -31.78679 | 116.48103 | 15428 ft | 377 kts | 79° |
| 2026-05-04 06:34 | -31.78084 | 116.51130 | 16046 ft | 382 kts | 79° |
| 2026-05-04 06:34 | -31.77482 | 116.54191 | 16662 ft | 387 kts | 79° |
| 2026-05-04 06:34 | -31.77079 | 116.56241 | 17067 ft | 390 kts | 78° |
| 2026-05-04 06:34 | -31.76462 | 116.59370 | 17686 ft | 395 kts | 78° |
| 2026-05-04 06:35 | -31.75837 | 116.62537 | 18268 ft | 400 kts | 78° |
| 2026-05-04 06:36 | -31.71258 | 116.85579 | 22072 ft | 427 kts | 78° |
| 2026-05-04 06:37 | -31.70578 | 116.88988 | 22582 ft | 431 kts | 78° |
| 2026-05-04 06:37 | -31.69889 | 116.92429 | 23093 ft | 435 kts | 78° |
| 2026-05-04 06:37 | -31.69193 | 116.95905 | 23604 ft | 439 kts | 78° |
| 2026-05-04 06:37 | -31.68493 | 116.99396 | 24067 ft | 442 kts | 78° |
| 2026-05-04 06:38 | -31.67784 | 117.02926 | 24489 ft | 446 kts | 78° |
| 2026-05-04 06:38 | -31.67124 | 117.06497 | 24888 ft | 448 kts | 84° |
| 2026-05-04 06:40 | -31.73699 | 117.31085 | 27658 ft | 465 kts | 112° |
| 2026-05-04 06:40 | -31.74833 | 117.34664 | 28014 ft | 468 kts | 111° |
| 2026-05-04 06:40 | -31.75963 | 117.38259 | 28361 ft | 472 kts | 111° |
| 2026-05-04 06:40 | -31.77101 | 117.41896 | 28703 ft | 475 kts | 111° |
| 2026-05-04 06:41 | -31.78231 | 117.45515 | 29025 ft | 478 kts | 111° |
| 2026-05-04 06:41 | -31.79381 | 117.49202 | 29334 ft | 482 kts | 111° |
| 2026-05-04 06:41 | -31.80537 | 117.52911 | 29616 ft | 485 kts | 111° |
| 2026-05-04 06:41 | -31.81700 | 117.56646 | 29938 ft | 488 kts | 111° |
| 2026-05-04 06:42 | -31.82866 | 117.60393 | 30417 ft | 487 kts | 111° |
| 2026-05-04 06:42 | -31.84024 | 117.64120 | 30854 ft | 485 kts | 111° |
| 2026-05-04 06:42 | -31.85180 | 117.67845 | 31227 ft | 486 kts | 111° |
| 2026-05-04 06:44 | -31.93281 | 117.94057 | 33652 ft | 487 kts | 111° |
| 2026-05-04 06:44 | -31.94435 | 117.97811 | 33961 ft | 488 kts | 111° |
| 2026-05-04 06:44 | -31.95589 | 118.01566 | 34291 ft | 488 kts | 111° |
| 2026-05-04 06:45 | -31.96743 | 118.05327 | 34568 ft | 488 kts | 111° |
| 2026-05-04 06:45 | -31.97895 | 118.09087 | 34852 ft | 488 kts | 111° |
| 2026-05-04 06:45 | -31.99043 | 118.12837 | 35141 ft | 487 kts | 111° |
| 2026-05-04 06:45 | -32.00190 | 118.16592 | 35409 ft | 487 kts | 111° |
| 2026-05-04 06:46 | -32.01338 | 118.20353 | 35667 ft | 486 kts | 111° |
| 2026-05-04 06:46 | -32.02482 | 118.24103 | 35933 ft | 486 kts | 111° |
| 2026-05-04 06:46 | -32.03623 | 118.27851 | 36201 ft | 486 kts | 111° |
| 2026-05-04 06:46 | -32.04748 | 118.31546 | 36450 ft | 485 kts | 111° |
| 2026-05-04 06:48 | -32.17497 | 118.54344 | 37324 ft | 478 kts | 133° |
| 2026-05-04 06:48 | -32.19627 | 118.57348 | 37334 ft | 476 kts | 133° |
| 2026-05-04 06:50 | -32.36352 | 118.81380 | 37342 ft | 473 kts | 133° |
| 2026-05-04 06:51 | -32.40530 | 118.87412 | 37347 ft | 475 kts | 132° |
| 2026-05-04 06:51 | -32.44721 | 118.93474 | 37342 ft | 477 kts | 133° |
| 2026-05-04 06:52 | -32.48932 | 118.99574 | 37340 ft | 478 kts | 133° |
| 2026-05-04 06:52 | -32.53145 | 119.05687 | 37346 ft | 480 kts | 133° |
| 2026-05-04 06:53 | -32.57344 | 119.11790 | 37344 ft | 481 kts | 133° |
| 2026-05-04 06:53 | -32.61571 | 119.17944 | 37346 ft | 481 kts | 133° |
| 2026-05-04 06:54 | -32.65794 | 119.24104 | 37342 ft | 481 kts | 133° |
| 2026-05-04 06:54 | -32.70019 | 119.30275 | 37343 ft | 480 kts | 133° |
| 2026-05-04 06:55 | -32.74225 | 119.36430 | 37342 ft | 480 kts | 133° |
| 2026-05-04 06:55 | -32.78429 | 119.42590 | 37345 ft | 479 kts | 133° |
| 2026-05-04 06:57 | -32.95098 | 119.67120 | 37342 ft | 476 kts | 133° |
| 2026-05-04 06:58 | -32.99250 | 119.73256 | 37347 ft | 476 kts | 133° |
| 2026-05-04 06:58 | -33.03403 | 119.79403 | 37345 ft | 476 kts | 133° |
| 2026-05-04 06:59 | -33.07551 | 119.85553 | 37343 ft | 476 kts | 133° |
| 2026-05-04 06:59 | -33.11694 | 119.91706 | 37344 ft | 476 kts | 133° |
| 2026-05-04 07:01 | -33.28223 | 120.16357 | 37348 ft | 476 kts | 133° |
| 2026-05-04 07:02 | -33.32352 | 120.22542 | 37347 ft | 476 kts | 133° |
| 2026-05-04 07:02 | -33.36482 | 120.28738 | 37353 ft | 476 kts | 133° |
| 2026-05-04 07:03 | -33.40606 | 120.34935 | 37349 ft | 476 kts | 133° |
| 2026-05-04 07:03 | -33.44738 | 120.41155 | 37348 ft | 476 kts | 133° |
| 2026-05-04 07:04 | -33.48856 | 120.47364 | 37353 ft | 476 kts | 133° |
| 2026-05-04 07:04 | -33.52967 | 120.53575 | 37343 ft | 476 kts | 133° |
| 2026-05-04 07:05 | -33.57076 | 120.59792 | 37354 ft | 476 kts | 133° |
| 2026-05-04 07:05 | -33.61189 | 120.66025 | 37367 ft | 475 kts | 133° |
| 2026-05-04 07:06 | -33.67313 | 120.75329 | 37359 ft | 475 kts | 133° |
| 2026-05-04 07:07 | -33.71405 | 120.81557 | 37361 ft | 475 kts | 133° |
| 2026-05-04 07:08 | -33.81825 | 121.06575 | 37355 ft | 485 kts | 115° |
| 2026-05-04 07:09 | -33.83071 | 121.10347 | 37354 ft | 485 kts | 116° |
| 2026-05-04 07:09 | -33.85589 | 121.17861 | 37354 ft | 485 kts | 116° |
| 2026-05-04 07:10 | -33.88124 | 121.25374 | 37359 ft | 485 kts | 116° |
| 2026-05-04 07:12 | -33.98211 | 121.55463 | 37360 ft | 485 kts | 116° |
| 2026-05-04 07:12 | -34.00721 | 121.62998 | 37354 ft | 485 kts | 116° |
| 2026-05-04 07:13 | -34.03229 | 121.70548 | 37359 ft | 485 kts | 116° |
| 2026-05-04 07:13 | -34.05730 | 121.78094 | 37358 ft | 485 kts | 116° |
| 2026-05-04 07:14 | -34.11961 | 121.96978 | 37355 ft | 484 kts | 116° |
| 2026-05-04 07:15 | -34.14444 | 122.04532 | 37360 ft | 484 kts | 116° |
| 2026-05-04 07:15 | -34.16923 | 122.12095 | 37347 ft | 484 kts | 116° |
| 2026-05-04 07:16 | -34.19398 | 122.19666 | 37355 ft | 484 kts | 116° |
| 2026-05-04 07:16 | -34.21868 | 122.27237 | 37361 ft | 484 kts | 116° |
| 2026-05-04 07:17 | -34.24314 | 122.34757 | 37352 ft | 484 kts | 116° |
| 2026-05-04 07:17 | -34.26773 | 122.42331 | 37350 ft | 484 kts | 116° |
| 2026-05-04 07:18 | -34.29224 | 122.49903 | 37351 ft | 483 kts | 116° |
| 2026-05-04 07:18 | -34.31669 | 122.57474 | 37349 ft | 483 kts | 116° |
| 2026-05-04 07:19 | -34.34109 | 122.65048 | 37354 ft | 483 kts | 115° |
| 2026-05-04 07:19 | -34.36546 | 122.72630 | 37352 ft | 483 kts | 115° |
| 2026-05-04 07:20 | -34.38975 | 122.80208 | 37346 ft | 483 kts | 115° |
| 2026-05-04 07:20 | -34.40992 | 122.86515 | 37347 ft | 482 kts | 115° |
| 2026-05-04 07:22 | -34.50620 | 123.16803 | 37346 ft | 481 kts | 115° |
| 2026-05-04 07:23 | -34.53013 | 123.24379 | 37348 ft | 481 kts | 115° |
| 2026-05-04 07:23 | -34.55402 | 123.31961 | 37345 ft | 481 kts | 115° |
| 2026-05-04 07:24 | -34.57789 | 123.39555 | 37342 ft | 481 kts | 115° |
| 2026-05-04 07:24 | -34.60165 | 123.47135 | 37339 ft | 480 kts | 115° |
| 2026-05-04 07:26 | -34.69591 | 123.77397 | 37339 ft | 479 kts | 115° |
| 2026-05-04 07:27 | -34.71935 | 123.84970 | 37335 ft | 478 kts | 115° |
| 2026-05-04 07:27 | -34.74274 | 123.92545 | 37333 ft | 478 kts | 115° |
| 2026-05-04 07:28 | -34.76606 | 124.00117 | 37338 ft | 478 kts | 114° |
| 2026-05-04 07:28 | -34.78932 | 124.07691 | 37332 ft | 478 kts | 114° |
| 2026-05-04 07:29 | -34.81254 | 124.15273 | 37330 ft | 477 kts | 114° |
| 2026-05-04 07:29 | -34.83567 | 124.22842 | 37328 ft | 477 kts | 114° |
| 2026-05-04 07:30 | -34.85859 | 124.30364 | 37322 ft | 477 kts | 114° |
| 2026-05-04 07:30 | -34.88163 | 124.37944 | 37327 ft | 476 kts | 114° |
| 2026-05-04 07:31 | -34.90458 | 124.45512 | 37322 ft | 476 kts | 114° |
| 2026-05-04 07:33 | -34.99580 | 124.75796 | 37321 ft | 475 kts | 114° |
| 2026-05-04 07:33 | -35.01848 | 124.83376 | 37320 ft | 475 kts | 114° |
| 2026-05-04 07:34 | -35.04091 | 124.90893 | 37317 ft | 475 kts | 114° |
| 2026-05-04 07:34 | -35.06347 | 124.98470 | 37316 ft | 475 kts | 114° |
| 2026-05-04 07:35 | -35.08411 | 125.06144 | 37318 ft | 476 kts | 110° |
| 2026-05-04 07:35 | -35.10249 | 125.13910 | 37316 ft | 476 kts | 109° |
| 2026-05-04 07:36 | -35.12078 | 125.21698 | 37313 ft | 476 kts | 109° |
| 2026-05-04 07:38 | -35.19503 | 125.52741 | 37307 ft | 475 kts | 109° |
| 2026-05-04 07:38 | -35.21337 | 125.60447 | 37305 ft | 475 kts | 109° |
| 2026-05-04 07:39 | -35.23178 | 125.68210 | 37307 ft | 475 kts | 109° |
| 2026-05-04 07:39 | -35.25015 | 125.75980 | 37308 ft | 475 kts | 109° |
| 2026-05-04 07:40 | -35.26846 | 125.83750 | 37304 ft | 475 kts | 109° |
| 2026-05-04 07:40 | -35.28670 | 125.91514 | 37302 ft | 474 kts | 109° |
| 2026-05-04 07:41 | -35.30488 | 125.99277 | 37305 ft | 474 kts | 109° |
| 2026-05-04 07:41 | -35.32301 | 126.07040 | 37307 ft | 474 kts | 109° |
| 2026-05-04 07:42 | -35.34107 | 126.14802 | 37300 ft | 474 kts | 109° |
| 2026-05-04 07:42 | -35.35908 | 126.22567 | 37297 ft | 474 kts | 109° |
| 2026-05-04 07:43 | -35.37693 | 126.30284 | 37295 ft | 474 kts | 109° |
| 2026-05-04 07:43 | -35.39484 | 126.38056 | 37294 ft | 474 kts | 109° |
| 2026-05-04 07:44 | -35.41271 | 126.45834 | 37292 ft | 474 kts | 108° |
| 2026-05-04 07:44 | -35.43051 | 126.53607 | 37289 ft | 474 kts | 108° |
| 2026-05-04 07:45 | -35.44827 | 126.61388 | 37292 ft | 473 kts | 108° |
| 2026-05-04 07:45 | -35.46598 | 126.69172 | 37288 ft | 474 kts | 108° |
| 2026-05-04 07:46 | -35.48361 | 126.76949 | 37289 ft | 474 kts | 108° |
| 2026-05-04 07:46 | -35.50122 | 126.84739 | 37283 ft | 474 kts | 108° |
| 2026-05-04 07:47 | -35.51865 | 126.92476 | 37287 ft | 474 kts | 108° |
| 2026-05-04 07:49 | -35.58841 | 127.23694 | 37281 ft | 473 kts | 108° |
| 2026-05-04 07:49 | -35.60560 | 127.31455 | 37280 ft | 473 kts | 108° |
| 2026-05-04 07:50 | -35.62285 | 127.39266 | 37284 ft | 473 kts | 107° |
| 2026-05-04 07:50 | -35.64003 | 127.47071 | 37277 ft | 473 kts | 107° |
| 2026-05-04 07:51 | -35.65718 | 127.54886 | 37277 ft | 473 kts | 107° |
| 2026-05-04 07:51 | -35.67427 | 127.62705 | 37274 ft | 473 kts | 107° |
| 2026-05-04 07:52 | -35.69129 | 127.70519 | 37278 ft | 473 kts | 107° |
| 2026-05-04 07:52 | -35.70826 | 127.78332 | 37274 ft | 473 kts | 107° |
| 2026-05-04 07:54 | -35.77552 | 128.09562 | 37273 ft | 473 kts | 107° |
| 2026-05-04 07:55 | -35.79226 | 128.17395 | 37271 ft | 472 kts | 107° |
| 2026-05-04 07:55 | -35.80892 | 128.25221 | 37269 ft | 472 kts | 107° |
| 2026-05-04 07:56 | -35.82555 | 128.33054 | 37267 ft | 472 kts | 107° |
| 2026-05-04 07:56 | -35.84211 | 128.40886 | 37264 ft | 472 kts | 107° |
| 2026-05-04 07:57 | -35.85865 | 128.48738 | 37263 ft | 472 kts | 107° |
| 2026-05-04 07:57 | -35.87512 | 128.56580 | 37268 ft | 472 kts | 107° |
| 2026-05-04 07:58 | -35.89144 | 128.64381 | 37263 ft | 473 kts | 107° |
| 2026-05-04 07:58 | -35.90782 | 128.72233 | 37263 ft | 472 kts | 107° |
| 2026-05-04 07:59 | -35.92412 | 128.80079 | 37264 ft | 472 kts | 107° |
| 2026-05-04 07:59 | -35.94040 | 128.87943 | 37265 ft | 472 kts | 107° |
| 2026-05-04 08:00 | -35.95662 | 128.95805 | 37260 ft | 472 kts | 107° |
| 2026-05-04 08:02 | -36.02093 | 129.27257 | 37253 ft | 472 kts | 107° |
| 2026-05-04 08:02 | -36.03686 | 129.35122 | 37249 ft | 472 kts | 107° |
| 2026-05-04 08:03 | -36.05275 | 129.42991 | 37254 ft | 472 kts | 107° |
| 2026-05-04 08:03 | -36.06859 | 129.50866 | 37250 ft | 472 kts | 107° |
| 2026-05-04 08:04 | -36.08437 | 129.58738 | 37237 ft | 472 kts | 107° |
| 2026-05-04 08:04 | -36.10001 | 129.66570 | 37247 ft | 472 kts | 107° |
| 2026-05-04 08:05 | -36.11570 | 129.74459 | 37246 ft | 472 kts | 107° |
| 2026-05-04 08:05 | -36.13134 | 129.82346 | 37245 ft | 472 kts | 107° |
| 2026-05-04 08:06 | -36.14690 | 129.90229 | 37238 ft | 472 kts | 107° |
| 2026-05-04 08:06 | -36.16244 | 129.98126 | 37239 ft | 472 kts | 107° |
| 2026-05-04 08:08 | -36.22141 | 130.28370 | 37227 ft | 472 kts | 107° |
| 2026-05-04 08:11 | -36.28960 | 130.63899 | 37228 ft | 471 kts | 107° |
| 2026-05-04 08:11 | -36.31212 | 130.75769 | 37226 ft | 471 kts | 107° |
| 2026-05-04 08:12 | -36.32705 | 130.83678 | 37226 ft | 471 kts | 107° |
| 2026-05-04 08:12 | -36.34196 | 130.91602 | 37221 ft | 471 kts | 107° |
| 2026-05-04 08:13 | -36.35669 | 130.99467 | 37218 ft | 471 kts | 107° |
| 2026-05-04 08:13 | -36.37148 | 131.07389 | 37220 ft | 471 kts | 106° |
| 2026-05-04 08:14 | -36.38620 | 131.15310 | 37217 ft | 471 kts | 106° |
| 2026-05-04 08:16 | -36.44455 | 131.47008 | 37212 ft | 471 kts | 106° |
| 2026-05-04 08:16 | -36.45895 | 131.54906 | 37210 ft | 471 kts | 106° |
| 2026-05-04 08:17 | -36.47333 | 131.62837 | 37211 ft | 471 kts | 106° |
| 2026-05-04 08:17 | -36.48769 | 131.70782 | 37207 ft | 471 kts | 106° |
| 2026-05-04 08:19 | -36.54457 | 132.02583 | 37201 ft | 471 kts | 106° |
| 2026-05-04 08:20 | -36.55867 | 132.10544 | 37198 ft | 471 kts | 106° |
| 2026-05-04 08:20 | -36.57264 | 132.18465 | 37197 ft | 471 kts | 106° |
| 2026-05-04 08:21 | -36.58663 | 132.26435 | 37195 ft | 472 kts | 105° |
| 2026-05-04 08:21 | -36.60058 | 132.34410 | 37186 ft | 472 kts | 105° |
| 2026-05-04 08:22 | -36.61449 | 132.42401 | 37189 ft | 472 kts | 105° |
| 2026-05-04 08:24 | -36.66958 | 132.74365 | 37192 ft | 472 kts | 105° |
| 2026-05-04 08:24 | -36.68312 | 132.82312 | 37192 ft | 472 kts | 105° |